Aeroporto :
LOGIN :

Iscrizione | Disclaimer

   EN    FR    IT 

 










Sommario :    VFR   VFR Marginale   IFR   IFR Intensivo   IFR Molto Intensivo
Visibilità : 
Base nubi : 
>= 8 km
>= 3000ft
5 / 8 km
1000 / 3000 ft
1500m / 5 km
500 / 1000 ft
800 / 1500m
200 / 500 ft
< 800m
< 200 ft
Simboli :   Temporali  Nebbia  Neve Forte  Precipitazioni Forti  Vento > 20 kt
SIGMETs :   Varie  Temporali  Ghiacco  Turbolenza  Onda orograficha  Ceneri Vulcaniche







- Altitudine del aeroporto : 412 ft
- Codice IATA : ADB


LTBJ - Adnan Menderes

ULTIMO METAR :
  • 240450Z 17003KT 120V230 CAVOK 18/12 Q1008 NOSIG RMK RWY16 18004KT 140V210

METARs OBSOLETI :
  • 240420Z VRB02KT CAVOK 17/12 Q1008 NOSIG RMK RWY16 11003KT 080V190
  • 240350Z 00000KT CAVOK 15/11 Q1008 NOSIG RMK RWY16 VRB02KT
  • 240320Z 10003KT 350V140 CAVOK 15/11 Q1008 NOSIG RMK RWY16 VRB02KT
  • 240250Z VRB02KT CAVOK 14/11 Q1008 NOSIG RMK RWY16 07004KT 360V100
  • 240220Z VRB01KT CAVOK 14/11 Q1008 NOSIG

TAF TAF LTBJ
Valido dal 24 a 00 ore il 25 a 00 ore UTC


232240Z 2400/2424 VRB02KT CAVOK
BECMG 2406/2408 21012KT SCT030
TEMPO 2411/2415 -TSRA FEW015CB BKN025
BECMG 2412/2415 35013KT
PROB40
TEMPO 2415/2418 -TSRA FEW015CB BKN025
BECMG 2418/2420 VRB02KT
Nessun NOTAM noto per questo aeroporto.



MetMap, La meteo Aeronautica in un colpo d'occhio ! - Copyright ORBIFLY Dicembre 2007 - Disclaimer

ORBIFLY MET'MAP TEAM :

Programmazione e sviluppo : Alexandra Zaïnal
Concezione e sviluppo : Baudouin d'Aumeries
Co-Programmazione e sviluppo : Marc-Olivier Méhu
Supporto tecnico e logistico : Manuel Goepfert
Aiuto per la traduzione : Arnaldo La Scala

Contatto : metmap@orbifly.com




FONTI E CREDITI :

   NOAA